Time;durP1;ratioP1;P1;durP2;ratioP2;P2;SDS_P1;SDS_P2;PMS_P1;PMS_P2;Temp;Humidity;BMP_temperature;BMP_pressure;BME280_temperature;BME280_humidity;BME280_pressure;Samples;Min_cycle;Max_cycle;Signal;HPM_P1;HPM_P2
2022/05/31 00:00:01;;;;;;;7.77;3.47;;;14.70;99.90;;;;;;5095412;28;20262;-80
2022/05/31 00:02:27;;;;;;;5.37;2.87;;;14.70;99.90;;;;;;5095971;28;20207;-79
2022/05/31 00:04:53;;;;;;;7.03;3.40;;;14.70;99.90;;;;;;5095797;28;20183;-81
2022/05/31 00:07:18;;;;;;;6.67;3.33;;;14.70;99.90;;;;;;5098122;28;20203;-79
2022/05/31 00:09:46;;;;;;;5.33;3.17;;;14.60;99.90;;;;;;5098793;28;20185;-78
2022/05/31 00:12:12;;;;;;;5.17;2.97;;;14.70;99.90;;;;;;5097560;28;20210;-82
2022/05/31 00:14:39;;;;;;;6.53;3.20;;;14.70;99.90;;;;;;5097858;28;20203;-79
2022/05/31 00:17:05;;;;;;;7.97;3.53;;;14.70;99.90;;;;;;5098896;28;20187;-79
2022/05/31 00:19:31;;;;;;;7.43;3.00;;;14.50;99.90;;;;;;5095157;28;20176;-79
2022/05/31 00:22:14;;;;;;;7.57;3.63;;;14.30;1.00;;;;;;5094458;28;20183;-79
2022/05/31 00:24:40;;;;;;;6.53;3.60;;;14.00;1.00;;;;;;5094183;28;20173;-79
2022/05/31 00:27:07;;;;;;;4.97;3.53;;;14.00;1.00;;;;;;5093942;28;20193;-79
2022/05/31 00:29:33;;;;;;;5.93;3.73;;;13.90;1.00;;;;;;5093348;28;20235;-79
2022/05/31 00:32:02;;;;;;;6.97;3.80;;;13.80;1.00;;;;;;5094633;28;20209;-82
2022/05/31 00:34:29;;;;;;;7.40;3.80;;;13.60;1.00;;;;;;5094580;28;20193;-81
2022/05/31 00:36:56;;;;;;;7.30;3.90;;;13.80;1.00;;;;;;5094918;28;20238;-78
2022/05/31 00:39:22;;;;;;;5.70;3.77;;;13.60;1.00;;;;;;5094447;28;20177;-78
2022/05/31 00:41:59;;;;;;;7.07;4.07;;;13.50;1.00;;;;;;5094305;28;20177;-81
2022/05/31 00:44:27;;;;;;;6.33;4.17;;;13.50;1.00;;;;;;5093910;28;20237;-81
2022/05/31 00:47:00;;;;;;;7.77;4.23;;;13.60;1.00;;;;;;5076064;28;20589;-79
2022/05/31 00:49:31;;;;;;;6.87;4.20;;;13.50;1.00;;;;;;5093907;28;20176;-79
2022/05/31 00:52:05;;;;;;;10.03;4.63;;;13.50;1.00;;;;;;5094101;28;20208;-82
2022/05/31 00:54:35;;;;;;;7.30;4.60;;;13.50;1.00;;;;;;5093838;28;20260;-82
2022/05/31 00:57:02;;;;;;;6.33;4.90;;;13.60;1.00;;;;;;5093641;28;20188;-82
2022/05/31 00:59:33;;;;;;;7.27;4.80;;;13.50;1.00;;;;;;5093178;28;20675;-80
2022/05/31 01:02:00;;;;;;;8.50;5.37;;;13.40;1.00;;;;;;5093986;28;20192;-81
2022/05/31 01:04:51;;;;;;;7.63;4.70;;;13.30;1.00;;;;;;5082931;28;20264;-78
2022/05/31 01:07:17;;;;;;;9.20;5.10;;;13.50;1.00;;;;;;5114618;28;20260;-80
2022/05/31 01:09:43;;;;;;;6.10;4.80;;;13.40;1.00;;;;;;5094726;28;20249;-79
2022/05/31 01:12:10;;;;;;;7.53;4.73;;;13.30;1.00;;;;;;5093572;28;20679;-81
2022/05/31 01:14:38;;;;;;;8.00;5.37;;;13.30;1.00;;;;;;5093450;28;20187;-79
2022/05/31 01:17:12;;;;;;;7.57;4.97;;;13.40;1.00;;;;;;5093736;28;20184;-79
2022/05/31 01:19:56;;;;;;;7.90;4.70;;;13.40;1.00;;;;;;5093837;28;20273;-82
2022/05/31 01:22:50;;;;;;;8.10;4.90;;;13.40;1.00;;;;;;5093549;28;20183;-80
2022/05/31 01:25:23;;;;;;;9.13;5.23;;;13.20;1.00;;;;;;5075616;28;20229;-81
2022/05/31 01:28:25;;;;;;;6.40;5.10;;;13.20;1.00;;;;;;5085622;28;20196;-78
2022/05/31 01:31:07;;;;;;;7.67;5.00;;;13.30;1.00;;;;;;5102808;28;20214;-80
2022/05/31 01:33:58;;;;;;;8.97;5.63;;;13.40;1.00;;;;;;5078592;28;20237;-81
2022/05/31 01:36:34;;;;;;;6.83;4.93;;;13.50;1.00;;;;;;5073427;28;20201;-80
2022/05/31 01:39:13;;;;;;;8.77;5.20;;;13.40;1.00;;;;;;5073177;28;20696;-79
2022/05/31 01:42:08;;;;;;;8.90;5.20;;;13.30;1.00;;;;;;5073335;28;20262;-78
2022/05/31 01:44:39;;;;;;;7.67;5.33;;;13.30;1.00;;;;;;5046909;28;20223;-82
2022/05/31 01:47:05;;;;;;;8.80;5.27;;;13.40;1.00;;;;;;5072953;28;20190;-81
2022/05/31 01:49:38;;;;;;;8.40;5.20;;;13.30;1.00;;;;;;5072887;28;20655;-79
2022/05/31 01:52:04;;;;;;;9.00;5.13;;;13.40;1.00;;;;;;5072917;28;20208;-81
2022/05/31 01:54:31;;;;;;;7.73;5.40;;;13.40;1.00;;;;;;5074201;28;20659;-80
2022/05/31 01:57:00;;;;;;;9.83;5.67;;;13.40;1.00;;;;;;5077002;28;20280;-80
2022/05/31 01:59:31;;;;;;;10.03;4.83;;;13.30;1.00;;;;;;5076952;28;20176;-82
2022/05/31 02:01:59;;;;;;;10.43;5.47;;;13.30;1.00;;;;;;5078146;28;20200;-82
2022/05/31 02:04:25;;;;;;;8.40;5.50;;;13.20;1.00;;;;;;5079013;28;20212;-80
2022/05/31 02:07:10;;;;;;;8.53;4.90;;;13.40;1.00;;;;;;5097024;28;20258;-80
2022/05/31 02:09:36;;;;;;;11.40;6.60;;;13.20;1.00;;;;;;5096800;28;20680;-80
2022/05/31 02:12:04;;;;;;;10.13;5.70;;;13.20;1.00;;;;;;5096704;28;20206;-81
2022/05/31 02:14:29;;;;;;;11.47;6.30;;;13.20;1.00;;;;;;5096854;28;20678;-81
2022/05/31 02:16:55;;;;;;;8.30;5.30;;;13.10;1.00;;;;;;5096909;28;20187;-81
2022/05/31 02:19:25;;;;;;;7.70;5.80;;;13.00;1.00;;;;;;5096907;28;20183;-80
2022/05/31 02:21:57;;;;;;;9.23;5.63;;;13.10;1.00;;;;;;5078730;28;20183;-80
2022/05/31 02:24:24;;;;;;;9.17;5.40;;;13.00;1.00;;;;;;5096365;28;20194;-79
2022/05/31 02:26:50;;;;;;;11.73;5.30;;;12.80;1.00;;;;;;5096573;28;20196;-82
2022/05/31 02:29:19;;;;;;;10.20;6.23;;;12.80;1.00;;;;;;5096704;28;20222;-82
2022/05/31 02:31:46;;;;;;;8.47;5.13;;;12.80;1.00;;;;;;5096473;28;20207;-81
2022/05/31 02:34:15;;;;;;;14.10;5.97;;;12.90;1.00;;;;;;5096776;28;20181;-82
2022/05/31 02:36:41;;;;;;;8.27;5.57;;;12.90;1.00;;;;;;5096373;28;20526;-77
2022/05/31 02:39:07;;;;;;;8.57;5.63;;;13.00;1.00;;;;;;5096625;28;20266;-80
2022/05/31 02:41:33;;;;;;;10.47;5.30;;;13.10;1.00;;;;;;5096694;28;20187;-80
2022/05/31 02:43:59;;;;;;;10.33;5.63;;;13.00;1.00;;;;;;5099108;28;20283;-81
2022/05/31 02:46:25;;;;;;;9.00;5.93;;;12.90;1.00;;;;;;5097976;28;20279;-80
2022/05/31 02:48:51;;;;;;;8.43;5.90;;;12.90;1.00;;;;;;5099366;28;20190;-80
2022/05/31 02:51:17;;;;;;;9.10;5.13;;;13.00;1.00;;;;;;5101431;28;20211;-80
2022/05/31 02:53:43;;;;;;;10.10;5.30;;;12.90;1.00;;;;;;5096614;28;20292;-80
2022/05/31 02:56:09;;;;;;;9.27;5.17;;;13.00;1.00;;;;;;5096319;28;20652;-80
2022/05/31 02:58:35;;;;;;;11.80;5.83;;;13.00;1.00;;;;;;5096416;28;20309;-79
2022/05/31 03:01:01;;;;;;;9.23;5.53;;;13.00;1.00;;;;;;5096358;28;20203;-80
2022/05/31 03:03:27;;;;;;;7.77;5.50;;;12.90;1.00;;;;;;5096113;28;20549;-81
2022/05/31 03:05:53;;;;;;;11.70;5.70;;;12.90;1.00;;;;;;5095859;28;20212;-80
2022/05/31 03:08:19;;;;;;;8.17;5.97;;;12.90;1.00;;;;;;5095941;28;20647;-79
2022/05/31 03:10:49;;;;;;;11.00;6.27;;;13.00;1.00;;;;;;5097377;28;20188;-81
2022/05/31 03:13:20;;;;;;;10.20;5.50;;;12.90;1.00;;;;;;5096503;28;20214;-80
2022/05/31 03:15:47;;;;;;;9.63;6.37;;;12.90;1.00;;;;;;5097243;28;20206;-82
2022/05/31 03:18:21;;;;;;;11.53;6.17;;;12.90;1.00;;;;;;5078647;28;20211;-77
2022/05/31 03:20:50;;;;;;;10.73;6.17;;;12.80;1.00;;;;;;5096075;28;20221;-76
2022/05/31 03:23:30;;;;;;;10.57;6.30;;;12.80;1.00;;;;;;5096054;28;20237;-79
2022/05/31 03:26:00;;;;;;;10.20;5.77;;;12.90;1.00;;;;;;5096293;28;20187;-80
2022/05/31 03:28:27;;;;;;;10.40;6.20;;;13.00;1.00;;;;;;5077733;28;20198;-82
2022/05/31 03:30:53;;;;;;;9.60;6.30;;;13.00;1.00;;;;;;5096108;28;20241;-80
2022/05/31 03:33:19;;;;;;;7.40;5.00;;;13.00;1.00;;;;;;5095449;28;20208;-81
2022/05/31 03:35:45;;;;;;;11.13;5.70;;;13.00;1.00;;;;;;5096037;28;20575;-82
2022/05/31 03:38:11;;;;;;;7.33;5.47;;;13.00;1.00;;;;;;5095337;28;20680;-81
2022/05/31 03:43:21;;;;;;;10.37;5.73;;;12.90;1.00;;;;;;5094413;28;20656;-82
2022/05/31 03:45:47;;;;;;;9.27;5.80;;;12.90;1.00;;;;;;5095433;28;20176;-81
2022/05/31 03:48:14;;;;;;;8.50;5.67;;;12.90;1.00;;;;;;5095075;28;20184;-79
2022/05/31 03:50:40;;;;;;;7.60;5.00;;;13.10;1.00;;;;;;5095688;28;20178;-80
2022/05/31 03:53:10;;;;;;;8.67;5.60;;;13.30;1.00;;;;;;5094973;28;20239;-80
2022/05/31 03:55:38;;;;;;;8.37;5.57;;;13.30;1.00;;;;;;5077744;28;20185;-81
2022/05/31 03:58:04;;;;;;;7.73;5.67;;;13.30;1.00;;;;;;5096567;28;20207;-80
2022/05/31 04:00:29;;;;;;;12.60;7.00;;;13.20;1.00;;;;;;5095245;28;20185;-81
2022/05/31 04:02:55;;;;;;;10.33;5.93;;;13.20;1.00;;;;;;5095101;28;20183;-81
2022/05/31 04:05:21;;;;;;;8.53;5.70;;;13.40;1.00;;;;;;5094818;28;20187;-81
2022/05/31 04:07:50;;;;;;;8.27;5.27;;;13.30;1.00;;;;;;5095103;28;20213;-80
2022/05/31 04:10:16;;;;;;;8.40;5.40;;;13.20;1.00;;;;;;5094819;28;20184;-82
2022/05/31 04:12:41;;;;;;;9.13;5.20;;;13.20;1.00;;;;;;5076208;28;20710;-79
2022/05/31 04:15:07;;;;;;;7.77;5.10;;;13.30;1.00;;;;;;5094653;28;20226;-79
2022/05/31 04:17:33;;;;;;;9.50;5.17;;;13.20;1.00;;;;;;5075670;28;20639;-78
2022/05/31 04:19:59;;;;;;;8.93;5.67;;;13.20;1.00;;;;;;5094187;28;20690;-79
2022/05/31 04:22:24;;;;;;;8.37;5.87;;;13.20;1.00;;;;;;5094683;28;20189;-78
2022/05/31 04:24:54;;;;;;;10.83;5.97;;;13.40;1.00;;;;;;5094742;28;20639;-81
2022/05/31 04:27:21;;;;;;;10.60;6.23;;;13.50;1.00;;;;;;5109822;28;20184;-79
2022/05/31 04:29:47;;;;;;;11.07;6.17;;;13.60;1.00;;;;;;5109481;28;20205;-81
2022/05/31 04:32:14;;;;;;;8.10;5.60;;;13.40;1.00;;;;;;5083615;28;20986;-78
2022/05/31 04:34:47;;;;;;;10.00;5.90;;;13.40;1.00;;;;;;5094349;28;20184;-79
2022/05/31 04:37:13;;;;;;;11.47;5.83;;;13.40;1.00;;;;;;5094597;28;20259;-80
2022/05/31 04:39:39;;;;;;;8.53;5.90;;;13.50;1.00;;;;;;5094287;28;20176;-78
2022/05/31 04:42:07;;;;;;;11.17;5.67;;;13.70;1.00;;;;;;5093927;28;20188;-82
2022/05/31 04:44:33;;;;;;;11.07;6.00;;;13.90;1.00;;;;;;5094050;28;20181;-81
2022/05/31 04:46:59;;;;;;;9.53;5.70;;;14.10;1.00;;;;;;5094449;28;20193;-79
2022/05/31 04:49:24;;;;;;;6.90;5.50;;;14.20;1.00;;;;;;5111363;28;20249;-80
2022/05/31 04:51:50;;;;;;;9.43;5.63;;;14.00;1.00;;;;;;5119285;28;20221;-79
2022/05/31 04:54:20;;;;;;;8.10;5.47;;;13.80;1.00;;;;;;5101967;28;20229;-78
2022/05/31 04:56:46;;;;;;;8.23;5.20;;;13.80;1.00;;;;;;5096257;28;20179;-81
2022/05/31 04:59:12;;;;;;;8.87;6.10;;;13.70;1.00;;;;;;5094430;28;20180;-81
2022/05/31 05:01:41;;;;;;;9.13;5.97;;;13.80;1.00;;;;;;5076133;28;20197;-82
2022/05/31 05:04:07;;;;;;;10.63;6.83;;;13.90;1.00;;;;;;5095145;28;20191;-81
2022/05/31 05:06:32;;;;;;;10.83;7.40;;;14.00;1.00;;;;;;5076381;28;20436;-82
2022/05/31 05:08:58;;;;;;;14.33;8.60;;;13.90;1.00;;;;;;5093982;28;20538;-80
2022/05/31 05:11:24;;;;;;;15.20;11.13;;;14.10;1.00;;;;;;5093361;28;20199;-81
2022/05/31 05:13:53;;;;;;;18.23;11.53;;;14.00;1.00;;;;;;5093641;28;20211;-81
2022/05/31 05:16:19;;;;;;;16.90;13.23;;;13.90;1.00;;;;;;5093704;28;20194;-82
2022/05/31 05:18:45;;;;;;;18.20;12.90;;;13.80;1.00;;;;;;5093341;28;20180;-81
2022/05/31 05:21:12;;;;;;;15.00;11.67;;;13.90;1.00;;;;;;5093351;28;20347;-80
2022/05/31 05:23:38;;;;;;;24.53;12.80;;;13.90;1.00;;;;;;5093913;28;20262;-80
2022/05/31 05:26:04;;;;;;;20.13;12.00;;;13.90;1.00;;;;;;5093289;28;20227;-81
2022/05/31 05:31:35;;;;;;;16.90;8.67;;;14.00;1.00;;;;;;5092755;28;20192;-80
2022/05/31 05:34:02;;;;;;;13.77;8.40;;;13.80;1.00;;;;;;5093405;28;20647;-81
2022/05/31 05:36:29;;;;;;;13.60;8.60;;;13.70;1.00;;;;;;5074982;28;20181;-80
2022/05/31 05:38:55;;;;;;;15.90;9.07;;;13.80;1.00;;;;;;5074947;28;20203;-78
2022/05/31 05:41:23;;;;;;;18.13;7.90;;;13.90;1.00;;;;;;5093181;28;20631;-81
2022/05/31 05:43:48;;;;;;;12.80;7.63;;;14.00;1.00;;;;;;5074693;28;20205;-82
2022/05/31 05:46:19;;;;;;;13.17;7.60;;;14.10;1.00;;;;;;5092579;28;20646;-83
2022/05/31 05:48:45;;;;;;;14.17;7.67;;;14.10;1.00;;;;;;5074612;28;20181;-83
2022/05/31 05:51:16;;;;;;;20.30;8.03;;;14.20;1.00;;;;;;5092788;28;20254;-80
2022/05/31 05:53:41;;;;;;;15.50;7.50;;;14.40;1.00;;;;;;5074665;28;20182;-79
2022/05/31 05:56:08;;;;;;;16.47;8.10;;;14.60;1.00;;;;;;5093199;28;20187;-82
2022/05/31 05:58:34;;;;;;;14.13;7.80;;;14.80;1.00;;;;;;5088498;28;20201;-80
2022/05/31 06:01:01;;;;;;;14.00;8.77;;;15.00;1.00;;;;;;5080983;28;20194;-80
2022/05/31 06:03:49;;;;;;;13.93;7.33;;;15.20;1.00;;;;;;5090658;28;20211;-80
2022/05/31 06:06:16;;;;;;;13.00;8.27;;;15.30;1.00;;;;;;5074091;28;20736;-82
2022/05/31 06:08:59;;;;;;;14.50;7.37;;;15.50;1.00;;;;;;5072935;28;20187;-79
2022/05/31 06:11:31;;;;;;;12.07;8.37;;;15.60;1.00;;;;;;5084239;28;20218;-79
2022/05/31 06:14:13;;;;;;;15.20;9.63;;;15.70;1.00;;;;;;5095480;28;20175;-81
2022/05/31 06:16:44;;;;;;;15.63;8.20;;;15.80;1.00;;;;;;5095843;28;20176;-81
2022/05/31 06:19:13;;;;;;;17.17;8.50;;;15.90;1.00;;;;;;5094557;28;20279;-82
2022/05/31 06:21:38;;;;;;;14.63;9.30;;;16.00;1.00;;;;;;5092875;28;20258;-81
2022/05/31 06:24:04;;;;;;;17.17;9.23;;;16.20;1.00;;;;;;5087509;28;20267;-84
2022/05/31 06:26:30;;;;;;;14.50;8.60;;;16.30;1.00;;;;;;5081600;28;20740;-82
2022/05/31 06:28:56;;;;;;;14.93;8.57;;;16.40;1.00;;;;;;5091703;28;20778;-82
2022/05/31 06:31:22;;;;;;;18.10;10.37;;;16.10;1.00;;;;;;5085256;28;20195;-82
2022/05/31 06:33:48;;;;;;;15.93;9.00;;;16.10;1.00;;;;;;5093822;28;20198;-83
2022/05/31 06:36:14;;;;;;;9.00;5.93;;;16.30;1.00;;;;;;5106511;28;20271;-80
2022/05/31 06:38:41;;;;;;;8.60;5.97;;;16.40;1.00;;;;;;5098532;28;20187;-80
2022/05/31 06:41:07;;;;;;;10.97;6.20;;;16.40;99.90;;;;;;5106239;28;20197;-82
2022/05/31 06:43:34;;;;;;;10.57;6.23;;;16.50;99.90;;;;;;5116713;28;20191;-82
2022/05/31 06:46:07;;;;;;;12.40;6.37;;;16.70;99.90;;;;;;5109009;28;20196;-79
2022/05/31 06:48:41;;;;;;;12.20;6.17;;;16.40;99.90;;;;;;5093031;28;20253;-79
2022/05/31 06:56:48;;;;;;;10.27;5.90;;;16.50;99.90;;;;;;5093495;28;20658;-80
2022/05/31 06:57:01;;;;;;;9.70;5.63;;;16.80;99.90;;;;;;5095694;28;20237;-83
2022/05/31 06:59:26;;;;;;;9.73;6.23;;;17.10;99.90;;;;;;5095397;28;20209;-81
2022/05/31 07:01:53;;;;;;;10.67;6.00;;;17.00;1.00;;;;;;5094788;28;20287;-81
2022/05/31 07:04:19;;;;;;;11.17;6.17;;;17.10;1.00;;;;;;5085203;28;20715;-80
2022/05/31 07:06:46;;;;;;;10.20;5.43;;;17.10;1.00;;;;;;5095007;28;20195;-81
2022/05/31 07:09:12;;;;;;;13.07;6.00;;;17.20;1.00;;;;;;5093649;28;20188;-82
2022/05/31 07:11:38;;;;;;;13.00;6.77;;;17.30;1.00;;;;;;5093111;28;20740;-81
2022/05/31 07:14:04;;;;;;;9.93;5.77;;;17.50;1.00;;;;;;5093568;28;20225;-82
2022/05/31 07:16:30;;;;;;;11.60;6.10;;;17.10;99.90;;;;;;5094258;28;20238;-83
2022/05/31 07:18:57;;;;;;;11.07;5.77;;;17.00;1.00;;;;;;5087545;28;20195;-81
2022/05/31 07:21:24;;;;;;;10.70;4.97;;;17.00;99.90;;;;;;5093136;28;20193;-82
2022/05/31 07:23:49;;;;;;;9.10;5.40;;;16.80;1.00;;;;;;5084622;28;20214;-82
2022/05/31 07:26:15;;;;;;;9.77;5.23;;;16.90;99.90;;;;;;5092838;28;20286;-80
2022/05/31 07:28:41;;;;;;;10.60;4.77;;;16.80;99.90;;;;;;5092719;28;20222;-79
2022/05/31 07:31:07;;;;;;;10.10;5.20;;;16.90;1.00;;;;;;5092013;28;20179;-83
2022/05/31 07:33:35;;;;;;;8.70;5.20;;;17.10;99.90;;;;;;5086977;28;20716;-83
2022/05/31 07:36:03;;;;;;;13.23;5.13;;;17.20;99.90;;;;;;5092394;28;20183;-82
2022/05/31 07:38:29;;;;;;;9.47;4.50;;;17.40;99.90;;;;;;5092365;28;20180;-81
2022/05/31 07:40:55;;;;;;;7.10;4.43;;;17.30;1.00;;;;;;5092347;28;20199;-81
2022/05/31 07:43:21;;;;;;;9.57;4.20;;;17.40;87.30;;;;;;5093050;28;20608;-80
2022/05/31 07:45:46;;;;;;;8.57;3.93;;;17.30;1.00;;;;;;5092668;28;20181;-80
2022/05/31 07:48:14;;;;;;;8.40;4.07;;;17.60;1.00;;;;;;5112388;28;20187;-80
2022/05/31 07:50:39;;;;;;;10.20;3.90;;;17.40;1.00;;;;;;5107623;28;20179;-80
2022/05/31 07:53:05;;;;;;;6.20;3.63;;;17.40;99.90;;;;;;5088925;28;20211;-82
2022/05/31 07:55:32;;;;;;;5.87;3.93;;;17.50;99.90;;;;;;5095571;28;20285;-81
2022/05/31 08:00:45;;;;;;;6.17;3.70;;;17.80;99.90;;;;;;5091801;28;20278;-81
2022/05/31 08:03:11;;;;;;;6.93;3.40;;;17.90;1.00;;;;;;5092329;28;20237;-81
2022/05/31 08:05:39;;;;;;;6.90;3.73;;;18.00;99.90;;;;;;5092030;28;20197;-82
2022/05/31 08:08:06;;;;;;;7.13;3.23;;;17.90;99.90;;;;;;5092792;28;20215;-83
2022/05/31 08:10:32;;;;;;;5.80;3.50;;;17.80;1.00;;;;;;5101301;28;20167;-79
2022/05/31 08:12:58;;;;;;;7.47;3.70;;;17.90;99.90;;;;;;5102201;28;20231;-79
2022/05/31 08:15:24;;;;;;;6.97;3.50;;;17.70;1.00;;;;;;5108713;28;20200;-80
2022/05/31 08:17:49;;;;;;;6.70;3.73;;;17.60;99.90;;;;;;5094208;28;20949;-81
2022/05/31 08:20:55;;;;;;;5.80;3.43;;;17.60;99.90;;;;;;5099603;28;20642;-78
2022/05/31 08:23:28;;;;;;;6.47;3.30;;;17.80;31.10;;;;;;5094462;28;20196;-83
2022/05/31 08:25:54;;;;;;;6.17;3.00;;;17.90;99.90;;;;;;5092874;28;20941;-78
2022/05/31 08:28:20;;;;;;;6.27;3.87;;;17.90;1.00;;;;;;5083399;28;20670;-82
2022/05/31 08:30:48;;;;;;;5.53;3.00;;;18.00;1.00;;;;;;5092162;28;20203;-78
2022/05/31 08:33:14;;;;;;;6.70;3.23;;;18.10;99.90;;;;;;5091842;28;20212;-81
2022/05/31 08:35:40;;;;;;;5.83;2.83;;;18.20;99.90;;;;;;5092913;28;20191;-79
2022/05/31 08:38:07;;;;;;;6.73;3.30;;;18.20;1.00;;;;;;5080794;28;20203;-78
2022/05/31 08:40:47;;;;;;;5.53;3.73;;;18.20;99.90;;;;;;5101246;28;20187;-81
2022/05/31 08:43:17;;;;;;;7.70;2.93;;;18.10;99.90;;;;;;5097424;28;20233;-79
2022/05/31 08:46:07;;;;;;;5.53;2.93;;;18.20;99.90;;;;;;5092371;28;20266;-82
2022/05/31 08:48:49;;;;;;;4.83;3.17;;;18.40;99.90;;;;;;5092739;28;20186;-82
2022/05/31 08:56:56;;;;;;;7.10;3.43;;;18.20;99.90;;;;;;5091484;28;20202;-80
2022/05/31 08:59:46;;;;;;;5.77;3.30;;;18.10;1.00;;;;;;5091887;28;20202;-81
2022/05/31 09:02:31;;;;;;;7.17;3.83;;;17.90;1.00;;;;;;5091319;28;20219;-82
2022/05/31 09:04:59;;;;;;;8.00;3.60;;;17.80;99.90;;;;;;5091728;28;20187;-82
2022/05/31 09:07:31;;;;;;;6.27;2.93;;;17.70;1.00;;;;;;5091065;28;20656;-80
2022/05/31 09:10:15;;;;;;;9.07;2.73;;;17.80;55.40;;;;;;5073540;28;20569;-82
2022/05/31 09:12:58;;;;;;;5.30;2.57;;;18.00;99.90;;;;;;5070914;28;20208;-81
2022/05/31 09:15:36;;;;;;;5.87;3.17;;;18.20;1.00;;;;;;5073673;28;20194;-80
2022/05/31 09:18:42;;;;;;;5.43;2.70;;;18.50;1.00;;;;;;5090694;28;20266;-82
2022/05/31 09:21:37;;;;;;;5.13;2.63;;;18.60;1.00;;;;;;5085071;28;20676;-82
2022/05/31 09:24:10;;;;;;;5.50;2.80;;;18.50;99.90;;;;;;5091666;28;20400;-81
2022/05/31 09:27:06;;;;;;;7.37;3.40;;;18.40;99.90;;;;;;5090586;28;20242;-78
2022/05/31 09:29:53;;;;;;;6.03;3.20;;;18.60;99.90;;;;;;5090961;28;20262;-83
2022/05/31 09:32:31;;;;;;;5.60;2.57;;;18.60;99.90;;;;;;5078648;28;20211;-78
2022/05/31 09:35:22;;;;;;;4.27;2.10;;;18.50;4.20;;;;;;5090920;28;20190;-79
2022/05/31 09:38:21;;;;;;;2.53;1.47;;;18.50;99.90;;;;;;5090029;28;20184;-80
2022/05/31 09:40:49;;;;;;;5.27;1.77;;;18.60;1.00;;;;;;5090008;28;20189;-79
2022/05/31 09:43:24;;;;;;;3.83;2.03;;;18.70;99.90;;;;;;5090854;28;20187;-83
2022/05/31 09:45:52;;;;;;;2.60;1.40;;;18.80;99.90;;;;;;5091276;28;20303;-84
2022/05/31 09:48:18;;;;;;;5.83;2.10;;;19.00;75.10;;;;;;5080184;28;20195;-80
2022/05/31 09:50:44;;;;;;;3.57;1.80;;;19.30;1.00;;;;;;5089665;28;20648;-82
2022/05/31 09:58:43;;;;;;;3.27;1.90;;;18.80;1.00;;;;;;5091324;28;20240;-81
2022/05/31 10:01:12;;;;;;;3.50;1.70;;;19.00;1.00;;;;;;5090462;28;20597;-80
2022/05/31 10:03:48;;;;;;;5.03;1.83;;;19.00;1.00;;;;;;5090069;28;20186;-80
2022/05/31 10:06:16;;;;;;;2.63;1.80;;;18.90;1.00;;;;;;5091040;28;20236;-80
2022/05/31 10:08:43;;;;;;;3.87;2.20;;;18.60;1.00;;;;;;5090742;28;20204;-81
2022/05/31 10:11:14;;;;;;;4.67;1.63;;;18.90;1.00;;;;;;5090905;28;20179;-81
2022/05/31 10:13:43;;;;;;;2.80;1.33;;;19.20;1.00;;;;;;5099635;28;20199;-78
2022/05/31 10:16:18;;;;;;;3.90;1.60;;;18.90;1.00;;;;;;5098945;28;20199;-82
2022/05/31 10:18:59;;;;;;;2.30;1.53;;;19.20;1.00;;;;;;5100515;28;20187;-79
2022/05/31 10:21:33;;;;;;;4.90;1.70;;;19.60;1.00;;;;;;5101235;28;20185;-77
2022/05/31 10:24:13;;;;;;;2.30;1.20;;;19.90;1.00;;;;;;5098532;28;20250;-80
2022/05/31 10:26:40;;;;;;;6.83;1.60;;;19.80;99.90;;;;;;5096764;28;20209;-81
2022/05/31 10:29:16;;;;;;;2.03;1.50;;;19.60;99.90;;;;;;5111499;28;20199;-82
2022/05/31 10:31:47;;;;;;;2.40;1.90;;;19.60;99.90;;;;;;5112396;28;20203;-80
2022/05/31 10:34:31;;;;;;;3.70;1.67;;;19.70;99.90;;;;;;5119926;28;20190;-81
2022/05/31 10:36:58;;;;;;;3.03;1.60;;;19.70;99.90;;;;;;5120180;28;20175;-80
2022/05/31 10:39:28;;;;;;;7.63;6.20;;;19.70;99.90;;;;;;5106390;28;20260;-79
2022/05/31 10:42:14;;;;;;;4.67;1.40;;;19.70;99.90;;;;;;5103863;28;20195;-81
2022/05/31 10:45:23;;;;;;;2.23;1.27;;;19.90;99.90;;;;;;5096394;28;20203;-82
2022/05/31 10:47:49;;;;;;;2.67;1.20;;;20.00;38.90;;;;;;5096078;28;20562;-82
2022/05/31 10:50:14;;;;;;;4.77;1.50;;;20.10;1.00;;;;;;5096385;28;20181;-79
2022/05/31 10:52:53;;;;;;;4.37;1.40;;;20.10;1.00;;;;;;5095522;28;20638;-81
2022/05/31 10:55:26;;;;;;;4.13;1.40;;;19.70;1.00;;;;;;5097113;28;20207;-84
2022/05/31 10:57:58;;;;;;;4.13;1.43;;;19.50;1.00;;;;;;5097828;28;20592;-83
2022/05/31 11:00:38;;;;;;;4.77;1.37;;;19.50;1.00;;;;;;5098059;28;20267;-83
2022/05/31 11:03:22;;;;;;;2.10;1.20;;;19.70;1.00;;;;;;5105026;28;20256;-79
2022/05/31 11:06:09;;;;;;;6.07;1.40;;;19.80;1.00;;;;;;5106225;28;20164;-82
2022/05/31 11:12:16;;;;;;;2.97;1.20;;;20.10;1.00;;;;;;5097064;28;20281;-83
2022/05/31 11:15:09;;;;;;;5.17;1.40;;;20.10;1.00;;;;;;5095562;28;20178;-81
2022/05/31 11:17:50;;;;;;;4.93;1.20;;;19.90;1.00;;;;;;5099376;28;20192;-83
2022/05/31 11:20:48;;;;;;;5.53;1.60;;;19.70;1.00;;;;;;5095075;28;20193;-83
2022/05/31 11:23:49;;;;;;;2.63;1.00;;;19.80;1.00;;;;;;5091017;28;20184;-80
2022/05/31 11:26:55;;;;;;;4.40;1.20;;;19.80;1.00;;;;;;5096130;28;20167;-82
2022/05/31 11:29:48;;;;;;;6.20;1.33;;;20.00;1.00;;;;;;5094924;28;20605;-79
2022/05/31 11:32:51;;;;;;;4.83;1.47;;;20.10;1.00;;;;;;5096360;28;20205;-81
2022/05/31 11:35:42;;;;;;;4.10;1.30;;;20.20;1.00;;;;;;5096616;28;20524;-80
2022/05/31 11:38:37;;;;;;;3.50;1.00;;;20.20;1.00;;;;;;5099945;28;20173;-81
2022/05/31 11:41:14;;;;;;;2.37;1.20;;;20.40;1.00;;;;;;5095422;28;20202;-79
2022/05/31 11:44:02;;;;;;;3.63;1.80;;;20.50;1.00;;;;;;5095132;28;20609;-81
2022/05/31 11:46:43;;;;;;;5.60;1.33;;;20.30;1.00;;;;;;5096827;28;20172;-80
2022/05/31 11:49:29;;;;;;;4.03;2.50;;;20.30;1.00;;;;;;5096627;28;20169;-83
2022/05/31 11:52:20;;;;;;;3.37;1.73;;;20.00;1.00;;;;;;5095662;28;20288;-81
2022/05/31 11:55:26;;;;;;;2.73;1.33;;;19.80;1.00;;;;;;5096161;28;20251;-82
2022/05/31 11:58:12;;;;;;;3.50;1.40;;;19.90;1.00;;;;;;5095938;28;20639;-81
2022/05/31 12:00:48;;;;;;;2.17;1.50;;;20.40;1.00;;;;;;5096699;28;20176;-81
2022/05/31 12:03:23;;;;;;;3.77;1.13;;;20.20;1.00;;;;;;5097985;28;20527;-81
2022/05/31 12:05:58;;;;;;;5.17;1.57;;;20.10;1.00;;;;;;5106968;28;20215;-80
2022/05/31 12:08:34;;;;;;;4.33;1.57;;;20.10;1.00;;;;;;5107820;28;20180;-79
2022/05/31 12:11:08;;;;;;;5.80;1.57;;;20.30;1.00;;;;;;5104360;28;20248;-79
2022/05/31 12:13:41;;;;;;;4.77;1.63;;;20.50;1.00;;;;;;5104873;28;20660;-80
2022/05/31 12:16:07;;;;;;;2.97;1.27;;;20.60;99.90;;;;;;5097599;28;20227;-82
2022/05/31 12:18:49;;;;;;;4.30;1.17;;;20.80;1.00;;;;;;5094915;28;20246;-80
2022/05/31 12:21:35;;;;;;;5.70;1.40;;;20.70;99.90;;;;;;5093323;28;20264;-82
2022/05/31 12:24:14;;;;;;;4.40;1.23;;;20.60;99.90;;;;;;5093245;28;20558;-83
2022/05/31 12:26:54;;;;;;;4.77;1.60;;;20.60;99.90;;;;;;5113450;28;20204;-79
2022/05/31 12:29:39;;;;;;;2.90;1.30;;;21.00;1.00;;;;;;5102442;28;20732;-80
2022/05/31 12:32:29;;;;;;;4.00;1.40;;;21.10;99.90;;;;;;5097855;28;20258;-82
2022/05/31 12:34:59;;;;;;;3.60;1.57;;;20.80;99.90;;;;;;5096437;28;20167;-80
2022/05/31 12:37:51;;;;;;;3.83;1.53;;;20.90;99.90;;;;;;5094605;28;20634;-81
2022/05/31 12:40:41;;;;;;;5.63;1.80;;;20.80;99.90;;;;;;5095168;28;20195;-81
2022/05/31 12:43:13;;;;;;;4.77;1.60;;;20.00;99.90;;;;;;5094762;28;20178;-82
2022/05/31 12:45:50;;;;;;;4.10;1.60;;;19.80;1.00;;;;;;5095043;28;20261;-83
2022/05/31 12:48:27;;;;;;;7.10;2.27;;;19.70;1.00;;;;;;5095041;28;20160;-83
2022/05/31 12:50:55;;;;;;;4.10;1.87;;;19.80;1.00;;;;;;5095644;28;20168;-82
2022/05/31 12:53:23;;;;;;;6.13;2.27;;;20.00;1.00;;;;;;5093901;28;20618;-82
2022/05/31 12:55:51;;;;;;;4.40;1.90;;;20.10;1.00;;;;;;5095420;28;20164;-82
2022/05/31 12:58:47;;;;;;;6.43;1.97;;;20.20;1.00;;;;;;5095796;28;20177;-83
2022/05/31 13:01:17;;;;;;;3.27;1.40;;;20.40;1.00;;;;;;5095821;28;20165;-81
2022/05/31 13:03:43;;;;;;;3.53;1.70;;;19.90;1.00;;;;;;5095394;28;20181;-83
2022/05/31 13:06:34;;;;;;;4.20;2.33;;;19.70;1.00;;;;;;5095089;28;20196;-80
2022/05/31 13:09:11;;;;;;;3.77;1.60;;;19.60;1.00;;;;;;5097984;28;20516;-82
2022/05/31 13:20:05;;;;;;;3.07;1.30;;;19.20;99.90;;;;;;5094426;28;20198;-83
2022/05/31 13:22:37;;;;;;;3.13;1.60;;;19.10;99.90;;;;;;5094493;28;20170;-82
2022/05/31 13:25:30;;;;;;;4.70;1.50;;;19.30;99.90;;;;;;5093035;28;20186;-81
2022/05/31 13:28:01;;;;;;;2.77;1.10;;;19.60;25.60;;;;;;5095211;28;20175;-80
2022/05/31 13:30:33;;;;;;;3.40;1.00;;;19.80;1.00;;;;;;5094709;28;20185;-84
2022/05/31 13:33:11;;;;;;;4.03;1.13;;;19.80;1.00;;;;;;5103479;28;20226;-79
2022/05/31 13:35:37;;;;;;;3.03;1.10;;;20.00;1.00;;;;;;5110193;28;20178;-79
2022/05/31 13:38:12;;;;;;;2.17;0.80;;;20.20;1.00;;;;;;5112271;28;20277;-80
2022/05/31 13:40:47;;;;;;;1.77;1.00;;;20.40;1.00;;;;;;5101638;28;20271;-82
2022/05/31 13:43:38;;;;;;;2.30;1.20;;;20.60;99.90;;;;;;5098177;28;20161;-80
2022/05/31 13:46:36;;;;;;;3.30;1.20;;;20.70;99.90;;;;;;5086356;28;20190;-82
2022/05/31 13:49:09;;;;;;;2.27;1.07;;;20.60;99.90;;;;;;5073917;28;20197;-84
2022/05/31 13:51:35;;;;;;;2.87;1.20;;;20.40;99.90;;;;;;5043336;28;20663;-82